createdAt,value
2017-09-15T00:00:42.431Z,44.39
2017-09-15T00:01:42.472Z,44.10
2017-09-15T00:02:42.511Z,44.20
2017-09-15T00:03:42.554Z,44.10
2017-09-15T00:04:42.595Z,44.29
2017-09-15T00:05:42.635Z,44.10
2017-09-15T00:06:42.674Z,44.39
2017-09-15T00:07:42.717Z,44.01
2017-09-15T00:08:42.759Z,44.10
2017-09-15T00:09:42.798Z,44.01
2017-09-15T00:10:42.840Z,44.29
2017-09-15T00:11:42.879Z,44.10
2017-09-15T00:12:42.919Z,44.39
2017-09-15T00:13:42.959Z,44.39
2017-09-15T00:14:43.001Z,44.29
2017-09-15T00:15:43.042Z,44.20
2017-09-15T00:16:43.081Z,44.29
2017-09-15T00:17:43.123Z,44.39
2017-09-15T00:18:43.163Z,44.39
2017-09-15T00:19:43.205Z,44.20
2017-09-15T00:20:43.245Z,44.29
2017-09-15T00:21:43.286Z,44.29
2017-09-15T00:22:43.326Z,44.39
2017-09-15T00:23:43.368Z,44.29
2017-09-15T00:24:43.409Z,44.39
2017-09-15T00:25:43.448Z,44.29
2017-09-15T00:26:43.488Z,44.39
2017-09-15T00:27:43.544Z,43.91
2017-09-15T00:28:43.571Z,44.39
2017-09-15T00:29:43.611Z,44.29
2017-09-15T00:30:43.651Z,44.29
2017-09-15T00:31:43.692Z,44.29
2017-09-15T00:32:43.734Z,44.39
2017-09-15T00:33:43.773Z,44.20
2017-09-15T00:34:43.814Z,44.29
2017-09-15T00:35:43.855Z,44.20
2017-09-15T00:36:43.905Z,44.29
2017-09-15T00:37:43.938Z,44.20
2017-09-15T00:38:43.976Z,44.49
2017-09-15T00:39:44.019Z,44.29
2017-09-15T00:40:44.063Z,44.49
2017-09-15T00:41:44.099Z,44.29
2017-09-15T00:42:44.140Z,44.29
2017-09-15T00:43:44.181Z,44.29
2017-09-15T00:44:44.221Z,44.29
2017-09-15T00:45:44.264Z,44.29
2017-09-15T00:46:44.303Z,44.20
2017-09-15T00:47:44.343Z,44.39
2017-09-15T00:48:44.384Z,44.29
2017-09-15T00:49:44.426Z,43.91
2017-09-15T00:50:44.466Z,43.62
2017-09-15T00:51:44.506Z,44.01
2017-09-15T00:52:44.546Z,43.81
2017-09-15T00:53:44.587Z,44.10
2017-09-15T00:54:44.630Z,44.01
2017-09-15T00:55:44.669Z,44.29
2017-09-15T00:56:44.710Z,44.39
2017-09-15T00:57:44.750Z,44.29
2017-09-15T00:58:44.793Z,44.01
2017-09-15T00:59:44.832Z,44.39
2017-09-15T01:00:44.871Z,44.01
2017-09-15T01:01:44.911Z,43.81
2017-09-15T01:02:44.953Z,44.49
2017-09-15T01:03:44.994Z,43.91
2017-09-15T01:04:45.034Z,44.01
2017-09-15T01:05:45.075Z,44.10
2017-09-15T01:06:45.116Z,43.91
2017-09-15T01:07:45.157Z,44.39
2017-09-15T01:08:45.198Z,44.39
2017-09-15T01:09:45.238Z,44.01
2017-09-15T01:10:45.278Z,43.81
2017-09-15T01:11:45.320Z,44.10
2017-09-15T01:12:45.361Z,44.10
2017-09-15T01:13:45.401Z,43.81
2017-09-15T01:14:45.441Z,44.01
2017-09-15T01:15:45.481Z,44.01
2017-09-15T01:16:45.523Z,44.01
2017-09-15T01:17:45.563Z,43.91
2017-09-15T01:18:45.604Z,44.01
2017-09-15T01:19:45.647Z,44.01
2017-09-15T01:20:45.685Z,43.91
2017-09-15T01:21:45.726Z,44.01
2017-09-15T01:22:45.768Z,43.91
2017-09-15T01:23:45.809Z,43.52
2017-09-15T01:24:45.849Z,43.91
2017-09-15T01:25:45.888Z,43.91
2017-09-15T01:26:45.930Z,43.43
2017-09-15T01:27:45.970Z,43.33
2017-09-15T01:28:46.012Z,43.33
2017-09-15T01:29:46.050Z,43.33
2017-09-15T01:30:46.092Z,43.72
2017-09-15T01:31:46.133Z,43.33
2017-09-15T01:32:46.175Z,43.91
2017-09-15T01:33:46.213Z,43.62
2017-09-15T01:34:46.253Z,43.72
2017-09-15T01:35:46.294Z,43.72
2017-09-15T01:36:46.339Z,43.62
2017-09-15T01:37:46.374Z,43.81
2017-09-15T01:38:46.415Z,43.91
2017-09-15T01:39:46.456Z,43.81
2017-09-15T01:40:46.497Z,43.33
2017-09-15T01:41:46.539Z,43.81
2017-09-15T01:42:46.579Z,43.81
2017-09-15T01:43:46.620Z,43.72
2017-09-15T01:44:46.661Z,43.72
2017-09-15T01:45:46.701Z,43.81
2017-09-15T01:46:46.740Z,43.52
2017-09-15T01:47:46.782Z,43.52
2017-09-15T01:48:46.823Z,44.01
2017-09-15T01:49:46.866Z,43.62
2017-09-15T01:50:46.903Z,43.62
2017-09-15T01:51:46.945Z,43.72
2017-09-15T01:52:46.984Z,44.01
2017-09-15T01:53:47.027Z,43.62
2017-09-15T01:54:47.069Z,44.01
2017-09-15T01:55:47.107Z,44.01
2017-09-15T01:56:47.150Z,43.81
2017-09-15T01:57:47.187Z,43.72
2017-09-15T01:58:47.228Z,43.91
2017-09-15T01:59:47.269Z,43.81
2017-09-15T02:00:47.312Z,43.91
2017-09-15T02:01:47.350Z,43.91
2017-09-15T02:02:47.392Z,43.91
2017-09-15T02:03:47.432Z,43.52
2017-09-15T02:04:47.473Z,44.01
2017-09-15T02:05:47.519Z,43.81
2017-09-15T02:06:47.553Z,43.81
2017-09-15T02:07:47.597Z,43.91
2017-09-15T02:08:47.633Z,44.01
2017-09-15T02:09:47.677Z,44.01
2017-09-15T02:10:47.716Z,44.01
2017-09-15T02:11:47.756Z,44.01
2017-09-15T02:12:47.797Z,43.72
2017-09-15T02:13:47.841Z,44.01
2017-09-15T02:14:47.879Z,43.72
2017-09-15T02:15:47.919Z,43.91
2017-09-15T02:16:47.960Z,43.91
2017-09-15T02:17:48.001Z,44.01
2017-09-15T02:18:48.040Z,44.01
2017-09-15T02:19:48.083Z,43.81
2017-09-15T02:20:48.123Z,43.52
2017-09-15T02:21:48.164Z,44.01
2017-09-15T02:22:48.203Z,43.81
2017-09-15T02:23:48.244Z,44.01
2017-09-15T02:24:48.285Z,44.01
2017-09-15T02:25:48.324Z,43.81
2017-09-15T02:26:48.365Z,43.91
2017-09-15T02:27:48.407Z,44.01
2017-09-15T02:28:48.446Z,44.01
2017-09-15T02:29:48.488Z,44.01
2017-09-15T02:30:48.527Z,44.01
2017-09-15T02:31:48.568Z,44.01
2017-09-15T02:32:48.610Z,43.91
2017-09-15T02:33:48.648Z,43.81
2017-09-15T02:34:48.692Z,44.01
2017-09-15T02:35:48.732Z,43.91
2017-09-15T02:36:48.772Z,44.01
2017-09-15T02:37:48.812Z,44.01
2017-09-15T02:38:48.853Z,44.10
2017-09-15T02:39:48.898Z,44.01
2017-09-15T02:40:48.935Z,44.01
2017-09-15T02:41:48.973Z,43.91
2017-09-15T02:42:49.015Z,43.91
2017-09-15T02:43:49.056Z,44.01
2017-09-15T02:44:49.096Z,43.81
2017-09-15T02:45:49.137Z,43.81
2017-09-15T02:46:49.176Z,44.20
2017-09-15T02:47:49.218Z,43.81
2017-09-15T02:48:49.261Z,43.81
2017-09-15T02:49:49.299Z,43.81
2017-09-15T02:50:49.340Z,43.81
2017-09-15T02:51:49.380Z,44.20
2017-09-15T02:52:49.421Z,44.29
2017-09-15T02:53:49.461Z,44.01
2017-09-15T02:54:49.500Z,43.81
2017-09-15T02:55:49.547Z,44.20
2017-09-15T02:56:49.582Z,44.10
2017-09-15T02:57:49.622Z,44.20
2017-09-15T02:58:49.664Z,43.81
2017-09-15T02:59:49.705Z,44.01
2017-09-15T03:00:49.744Z,43.81
2017-09-15T03:01:49.785Z,44.29
2017-09-15T03:02:49.825Z,43.81
2017-09-15T03:03:49.866Z,44.10
2017-09-15T03:04:49.908Z,44.10
2017-09-15T03:05:49.946Z,43.62
2017-09-15T03:06:49.987Z,44.10
2017-09-15T03:07:50.029Z,44.01
2017-09-15T03:08:50.070Z,44.10
2017-09-15T03:09:50.109Z,44.20
2017-09-15T03:10:50.152Z,43.72
2017-09-15T03:11:50.191Z,44.10
2017-09-15T03:12:50.232Z,44.08
2017-09-15T03:13:50.272Z,44.20
2017-09-15T03:14:50.313Z,44.10
2017-09-15T03:15:50.353Z,43.62
2017-09-15T03:16:50.396Z,44.10
2017-09-15T03:17:50.433Z,44.10
2017-09-15T03:18:50.474Z,43.72
2017-09-15T03:19:50.515Z,43.72
2017-09-15T03:20:50.555Z,43.52
2017-09-15T03:21:50.595Z,43.72
2017-09-15T03:22:50.636Z,43.72
2017-09-15T03:23:50.680Z,43.72
2017-09-15T03:24:50.722Z,43.72
2017-09-15T03:25:50.759Z,43.72
2017-09-15T03:26:50.797Z,43.52
2017-09-15T03:27:50.839Z,43.72
2017-09-15T03:28:50.880Z,43.72
2017-09-15T03:29:50.919Z,43.72
2017-09-15T03:30:50.962Z,43.62
2017-09-15T03:31:51.000Z,43.72
2017-09-15T03:32:51.045Z,43.62
2017-09-15T03:33:51.082Z,43.72
2017-09-15T03:34:51.123Z,43.62
2017-09-15T03:35:51.163Z,43.52
2017-09-15T03:36:51.203Z,43.62
2017-09-15T03:37:51.244Z,43.72
2017-09-15T03:38:51.285Z,43.72
2017-09-15T03:39:51.326Z,43.62
2017-09-15T03:40:51.367Z,43.62
2017-09-15T03:41:51.405Z,43.62
2017-09-15T03:42:51.446Z,43.60
2017-09-15T03:43:51.487Z,43.62
2017-09-15T03:44:51.527Z,43.72
2017-09-15T03:45:51.570Z,43.72
2017-09-15T03:46:51.609Z,43.62
2017-09-15T03:47:51.648Z,43.52
2017-09-15T03:48:51.690Z,43.62
2017-09-15T03:49:51.736Z,43.52
2017-09-15T03:50:51.772Z,43.62
2017-09-15T03:51:51.811Z,43.33
2017-09-15T03:52:51.854Z,43.62
2017-09-15T03:53:51.893Z,43.62
2017-09-15T03:54:51.932Z,43.62
2017-09-15T03:55:51.973Z,43.52
2017-09-15T03:56:52.014Z,43.43
2017-09-15T03:57:52.053Z,43.52
2017-09-15T03:58:52.095Z,43.52
2017-09-15T03:59:52.136Z,43.60
2017-09-15T04:00:52.177Z,43.52
2017-09-15T04:01:52.218Z,43.62
2017-09-15T04:02:52.259Z,43.33
2017-09-15T04:03:52.299Z,43.24
2017-09-15T04:04:52.344Z,43.52
2017-09-15T04:05:52.379Z,43.33
2017-09-15T04:06:52.418Z,43.52
2017-09-15T04:07:52.461Z,43.52
2017-09-15T04:08:52.501Z,43.24
2017-09-15T04:09:52.561Z,43.31
2017-09-15T04:10:52.579Z,43.43
2017-09-15T04:11:52.624Z,43.52
2017-09-15T04:12:52.662Z,43.41
2017-09-15T04:13:52.701Z,43.62
2017-09-15T04:14:52.743Z,43.33
2017-09-15T04:15:52.785Z,43.52
2017-09-15T04:16:52.823Z,43.33
2017-09-15T04:17:52.864Z,43.24
2017-09-15T04:18:52.903Z,43.43
2017-09-15T04:19:52.945Z,43.33
2017-09-15T04:20:52.985Z,43.33
2017-09-15T04:21:53.026Z,43.24
2017-09-15T04:22:53.068Z,43.24
2017-09-15T04:23:53.107Z,43.24
2017-09-15T04:24:53.153Z,43.43
2017-09-15T04:25:53.187Z,43.14
2017-09-15T04:26:53.227Z,43.52
2017-09-15T04:27:53.270Z,43.43
2017-09-15T04:28:53.311Z,43.52
2017-09-15T04:29:53.350Z,43.14
2017-09-15T04:30:53.390Z,43.14
2017-09-15T04:31:53.431Z,43.04
2017-09-15T04:32:53.473Z,43.04
2017-09-15T04:33:53.512Z,43.24
2017-09-15T04:34:53.559Z,43.14
2017-09-15T04:35:53.594Z,43.24
2017-09-15T04:36:53.636Z,43.24
2017-09-15T04:37:53.674Z,43.04
2017-09-15T04:38:53.715Z,43.04
2017-09-15T04:39:53.756Z,43.04
2017-09-15T04:40:53.796Z,43.04
2017-09-15T04:41:53.837Z,43.04
2017-09-15T04:42:53.877Z,43.14
2017-09-15T04:43:53.929Z,43.24
2017-09-15T04:44:53.960Z,42.94
2017-09-15T04:45:54.000Z,43.33
2017-09-15T04:46:54.040Z,43.14
2017-09-15T04:47:54.079Z,43.14
2017-09-15T04:48:54.120Z,43.24
2017-09-15T04:49:54.162Z,43.04
2017-09-15T04:50:54.201Z,43.24
2017-09-15T04:51:54.243Z,43.24
2017-09-15T04:52:54.282Z,43.24
2017-09-15T04:53:54.324Z,43.33
2017-09-15T04:54:54.366Z,43.24
2017-09-15T04:55:54.408Z,43.14
2017-09-15T04:56:54.447Z,43.33
2017-09-15T04:57:54.486Z,43.24
2017-09-15T04:58:54.528Z,43.33
2017-09-15T04:59:54.568Z,43.33
2017-09-15T05:00:54.607Z,43.24
2017-09-15T05:01:54.648Z,43.43
2017-09-15T05:02:54.688Z,43.14
2017-09-15T05:03:54.783Z,43.24
2017-09-15T05:04:54.821Z,43.14
2017-09-15T05:05:54.810Z,43.04
2017-09-15T05:06:54.946Z,43.04
2017-09-15T05:07:54.891Z,43.04
2017-09-15T05:08:54.932Z,43.24
2017-09-15T05:09:55.082Z,43.04
2017-09-15T05:10:55.014Z,43.14
2017-09-15T05:11:55.058Z,43.14
2017-09-15T05:12:55.094Z,43.04
2017-09-15T05:13:55.212Z,43.24
2017-09-15T05:14:55.178Z,43.24
2017-09-15T05:15:55.338Z,43.14
2017-09-15T05:16:55.383Z,43.24
2017-09-15T05:17:55.297Z,43.04
2017-09-15T05:18:55.340Z,43.04
2017-09-15T05:19:55.380Z,43.14
2017-09-15T05:20:55.420Z,43.14
2017-09-15T05:21:55.460Z,43.24
2017-09-15T05:22:55.500Z,43.14
2017-09-15T05:23:55.544Z,43.14
2017-09-15T05:24:55.581Z,43.24
2017-09-15T05:25:55.620Z,42.75
2017-09-15T05:26:55.661Z,42.66
2017-09-15T05:27:55.705Z,42.75
2017-09-15T05:28:55.746Z,42.75
2017-09-15T05:29:55.784Z,42.66
2017-09-15T05:30:55.843Z,42.85
2017-09-15T05:31:55.863Z,42.85
2017-09-15T05:32:55.909Z,42.75
2017-09-15T05:33:55.946Z,42.75
2017-09-15T05:34:55.988Z,42.66
2017-09-15T05:35:56.029Z,42.75
2017-09-15T05:36:56.070Z,42.46
2017-09-15T05:37:56.108Z,42.75
2017-09-15T05:38:56.151Z,42.85
2017-09-15T05:39:56.191Z,42.85
2017-09-15T05:40:56.239Z,42.85
2017-09-15T05:41:56.271Z,42.56
2017-09-15T05:42:56.312Z,42.46
2017-09-15T05:43:56.353Z,42.94
2017-09-15T05:44:56.393Z,42.75
2017-09-15T05:45:56.435Z,42.94
2017-09-15T05:46:56.511Z,42.66
2017-09-15T05:47:56.515Z,42.46
2017-09-15T05:48:56.671Z,42.46
2017-09-15T05:49:56.598Z,42.94
2017-09-15T05:50:56.636Z,42.27
2017-09-15T05:51:56.678Z,43.12
2017-09-15T05:52:56.721Z,42.35
2017-09-15T05:53:56.764Z,42.46
2017-09-15T05:54:56.801Z,42.73
2017-09-15T05:55:56.840Z,42.63
2017-09-15T05:56:56.918Z,42.44
2017-09-15T05:57:56.923Z,42.35
2017-09-15T05:58:56.959Z,42.25
2017-09-15T05:59:57.002Z,42.73
2017-09-15T06:00:57.049Z,42.63
2017-09-15T06:01:57.079Z,43.21
2017-09-15T06:02:57.124Z,42.73
2017-09-15T06:03:57.167Z,42.54
2017-09-15T06:04:57.203Z,42.63
2017-09-15T06:05:57.243Z,43.12
2017-09-15T06:06:57.284Z,43.21
2017-09-15T06:07:57.324Z,43.21
2017-09-15T06:08:57.363Z,43.02
2017-09-15T06:09:57.411Z,43.12
2017-09-15T06:10:57.444Z,43.41
2017-09-15T06:11:57.506Z,43.12
2017-09-15T06:12:57.531Z,43.31
2017-09-15T06:13:57.580Z,43.12
2017-09-15T06:14:57.603Z,43.60
2017-09-15T06:15:57.646Z,43.89
2017-09-15T06:16:57.687Z,43.89
2017-09-15T06:17:57.723Z,43.79
2017-09-15T06:18:57.770Z,43.60
2017-09-15T06:19:57.809Z,43.98
2017-09-15T06:20:57.846Z,43.50
2017-09-15T06:21:57.939Z,43.89
2017-09-15T06:22:57.929Z,43.79
2017-09-15T06:23:57.966Z,44.37
2017-09-15T06:24:58.005Z,44.27
2017-09-15T06:25:58.046Z,44.37
2017-09-15T06:26:58.087Z,44.18
2017-09-15T06:27:58.125Z,44.46
2017-09-15T06:28:58.165Z,44.27
2017-09-15T06:29:58.207Z,43.89
2017-09-15T06:30:58.246Z,44.27
2017-09-15T06:31:58.290Z,44.27
2017-09-15T06:32:58.326Z,44.46
2017-09-15T06:33:58.367Z,44.27
2017-09-15T06:34:58.407Z,44.18
2017-09-15T06:35:58.487Z,44.08
2017-09-15T06:36:58.487Z,44.18
2017-09-15T06:37:58.533Z,44.37
2017-09-15T06:38:58.581Z,44.18
2017-09-15T06:39:58.610Z,44.18
2017-09-15T06:40:58.649Z,44.08
2017-09-15T06:41:58.695Z,44.18
2017-09-15T06:42:58.727Z,44.27
2017-09-15T06:43:58.869Z,44.27
2017-09-15T06:44:58.817Z,44.18
2017-09-15T06:45:58.869Z,44.18
2017-09-15T06:46:58.890Z,44.18
2017-09-15T06:47:59.003Z,44.29
2017-09-15T06:48:58.975Z,44.10
2017-09-15T06:49:59.017Z,44.10
2017-09-15T06:50:59.064Z,44.10
2017-09-15T06:51:59.091Z,44.29
2017-09-15T06:52:59.138Z,44.10
2017-09-15T06:53:59.175Z,44.10
2017-09-15T06:54:59.214Z,44.29
2017-09-15T06:55:59.274Z,44.01
2017-09-15T06:56:59.340Z,44.29
2017-09-15T06:57:59.338Z,44.10
2017-09-15T06:58:59.495Z,44.29
2017-09-15T06:59:59.428Z,44.39
2017-09-15T07:00:59.458Z,44.20
2017-09-15T07:01:59.499Z,44.29
2017-09-15T07:02:59.538Z,44.39
2017-09-15T07:03:59.643Z,44.20
2017-09-15T07:04:59.621Z,44.20
2017-09-15T07:05:59.661Z,44.10
2017-09-15T07:06:59.700Z,44.20
2017-09-15T07:07:59.744Z,44.20
2017-09-15T07:08:59.785Z,44.20
2017-09-15T07:09:59.824Z,44.20
2017-09-15T07:10:59.864Z,44.20
2017-09-15T07:11:59.904Z,44.29
2017-09-15T07:12:59.945Z,44.39
2017-09-15T07:13:59.985Z,43.62
2017-09-15T07:15:00.044Z,43.91
2017-09-15T07:16:00.069Z,44.01
2017-09-15T07:17:00.108Z,43.72
2017-09-15T07:18:00.143Z,44.10
2017-09-15T07:19:00.188Z,43.52
2017-09-15T07:20:00.226Z,43.52
2017-09-15T07:21:00.277Z,43.24
2017-09-15T07:22:00.411Z,43.24
2017-09-15T07:23:00.350Z,43.24
2017-09-15T07:24:00.392Z,43.14
2017-09-15T07:25:00.433Z,43.04
2017-09-15T07:26:00.470Z,43.04
2017-09-15T07:27:00.515Z,43.04
2017-09-15T07:28:00.554Z,43.24
2017-09-15T07:29:00.592Z,42.94
2017-09-15T07:30:00.655Z,42.46
2017-09-15T07:31:00.673Z,42.85
2017-09-15T07:32:00.738Z,42.75
2017-09-15T07:33:00.762Z,42.85
2017-09-15T07:34:00.796Z,42.85
2017-09-15T07:35:00.836Z,43.04
2017-09-15T07:36:00.880Z,42.94
2017-09-15T07:37:00.920Z,42.94
2017-09-15T07:38:00.956Z,43.06
2017-09-15T07:39:01.012Z,42.56
2017-09-15T07:40:01.044Z,43.14
2017-09-15T07:41:01.079Z,42.46
2017-09-15T07:42:01.126Z,42.58
2017-09-15T07:43:01.163Z,42.46
2017-09-15T07:44:01.203Z,42.39
2017-09-15T07:45:01.247Z,42.48
2017-09-15T07:46:01.288Z,42.58
2017-09-15T07:47:01.324Z,42.36
2017-09-15T07:48:01.390Z,42.75
2017-09-15T07:49:01.407Z,42.75
2017-09-15T07:50:01.444Z,42.66
2017-09-15T07:51:01.492Z,42.19
2017-09-15T07:52:01.531Z,42.19
2017-09-15T07:53:01.569Z,42.27
2017-09-15T07:54:01.616Z,42.36
2017-09-15T07:55:01.652Z,42.19
2017-09-15T07:56:01.688Z,42.29
2017-09-15T07:57:01.742Z,42.29
2017-09-15T07:58:01.770Z,42.29
2017-09-15T07:59:01.827Z,42.19
2017-09-15T08:00:01.855Z,42.58
2017-09-15T08:01:01.901Z,42.29
2017-09-15T08:02:01.934Z,42.87
2017-09-15T08:03:01.973Z,42.58
2017-09-15T08:04:02.022Z,42.77
2017-09-15T08:05:02.069Z,42.97
2017-09-15T08:06:02.101Z,45.76
2017-09-15T08:07:02.141Z,45.36
2017-09-15T08:08:02.202Z,46.73
2017-09-15T08:09:02.222Z,45.07
2017-09-15T08:10:02.263Z,45.82
2017-09-15T08:11:02.306Z,46.76
2017-09-15T08:12:02.346Z,47.82
2017-09-15T08:13:02.384Z,48.08
2017-09-15T08:14:02.431Z,48.47
2017-09-15T08:15:02.478Z,48.38
2017-09-15T08:16:02.515Z,49.24
2017-09-15T08:17:02.550Z,48.95
2017-09-15T08:18:02.600Z,49.05
2017-09-15T08:19:02.630Z,48.95
2017-09-15T08:20:02.676Z,48.69
2017-09-15T08:21:02.716Z,48.49
2017-09-15T08:22:02.765Z,48.59
2017-09-15T08:23:02.936Z,48.30
2017-09-15T08:24:02.911Z,48.40
2017-09-15T08:25:02.882Z,47.92
2017-09-15T08:26:02.970Z,48.01
2017-09-15T08:27:02.969Z,47.34
2017-09-15T08:28:03.009Z,48.38
2017-09-15T08:29:03.051Z,48.38
2017-09-15T08:30:03.720Z,48.18
2017-09-15T08:31:03.135Z,48.88
2017-09-15T08:32:03.175Z,48.11
2017-09-15T08:33:03.216Z,47.17
2017-09-15T08:34:03.265Z,47.17
2017-09-15T08:35:03.306Z,46.42
2017-09-15T08:36:03.352Z,46.23
2017-09-15T08:37:03.381Z,46.97
2017-09-15T08:38:03.421Z,47.45
2017-09-15T08:39:03.470Z,47.94
2017-09-15T08:40:03.509Z,47.07
2017-09-15T08:41:03.565Z,47.65
2017-09-15T08:42:03.605Z,47.75
2017-09-15T08:43:03.636Z,47.65
2017-09-15T08:44:03.686Z,47.36
2017-09-15T08:45:03.727Z,47.55
2017-09-15T08:46:03.756Z,46.97
2017-09-15T08:47:03.801Z,47.19
2017-09-15T08:48:03.845Z,46.90
2017-09-15T08:49:03.895Z,46.23
2017-09-15T08:50:03.950Z,46.23
2017-09-15T08:51:03.972Z,47.00
2017-09-15T08:52:04.035Z,47.87
2017-09-15T08:53:04.061Z,47.07
2017-09-15T08:54:04.138Z,47.65
2017-09-15T08:55:04.143Z,47.45
2017-09-15T08:56:04.196Z,46.78
2017-09-15T08:57:04.288Z,47.17
2017-09-15T08:58:04.285Z,47.27
2017-09-15T08:59:04.311Z,47.85
2017-09-15T09:00:04.359Z,47.65
2017-09-15T09:01:04.389Z,48.03
2017-09-15T09:02:04.434Z,48.23
2017-09-15T09:03:04.494Z,48.30
2017-09-15T09:04:04.559Z,48.30
2017-09-15T09:05:04.594Z,48.30
2017-09-15T09:06:04.640Z,48.42
2017-09-15T09:07:04.685Z,48.59
2017-09-15T09:08:04.759Z,48.11
2017-09-15T09:09:04.759Z,48.88
2017-09-15T09:10:04.811Z,48.52
2017-09-15T09:11:04.859Z,47.45
2017-09-15T09:12:04.894Z,47.94
2017-09-15T09:13:04.990Z,47.94
2017-09-15T09:14:04.974Z,47.85
2017-09-15T09:15:05.028Z,48.03
2017-09-15T09:16:05.041Z,48.11
2017-09-15T09:17:05.105Z,48.52
2017-09-15T09:18:05.139Z,48.52
2017-09-15T09:19:05.199Z,48.03
2017-09-15T09:20:05.236Z,47.55
2017-09-15T09:21:05.269Z,48.71
2017-09-15T09:22:05.302Z,48.13
2017-09-15T09:23:05.365Z,48.13
2017-09-15T09:24:05.397Z,47.65
2017-09-15T09:25:05.437Z,47.94
2017-09-15T09:26:05.473Z,47.85
2017-09-15T09:27:05.529Z,47.85
2017-09-15T09:28:05.599Z,47.75
2017-09-15T09:29:05.573Z,47.75
2017-09-15T09:30:05.662Z,47.55
2017-09-15T09:31:05.659Z,47.65
2017-09-15T09:32:05.689Z,47.65
2017-09-15T09:33:05.736Z,47.55
2017-09-15T09:34:05.867Z,47.55
2017-09-15T09:35:05.815Z,48.03
2017-09-15T09:36:05.860Z,48.13
2017-09-15T09:37:05.901Z,48.23
2017-09-15T09:38:05.940Z,47.55
2017-09-15T09:39:05.989Z,47.85
2017-09-15T09:40:06.029Z,47.75
2017-09-15T09:41:06.069Z,47.17
2017-09-15T09:42:06.115Z,47.94
2017-09-15T09:43:06.153Z,48.03
2017-09-15T09:44:06.194Z,48.03
2017-09-15T09:45:06.246Z,47.17
2017-09-15T09:46:06.280Z,47.82
2017-09-15T09:47:06.372Z,47.75
2017-09-15T09:48:06.436Z,47.85
2017-09-15T09:49:06.417Z,47.34
2017-09-15T09:50:06.445Z,47.72
2017-09-15T09:51:06.489Z,47.44
2017-09-15T09:52:06.533Z,47.92
2017-09-15T09:53:06.574Z,47.53
2017-09-15T09:54:06.623Z,47.92
2017-09-15T09:55:06.657Z,47.63
2017-09-15T09:56:06.700Z,48.49
2017-09-15T09:57:06.746Z,48.79
2017-09-15T09:58:06.783Z,48.40
2017-09-15T09:59:06.920Z,47.92
2017-09-15T10:00:06.868Z,48.11
2017-09-15T10:01:06.925Z,48.21
2017-09-15T10:02:06.971Z,48.42
2017-09-15T10:03:07.002Z,47.75
2017-09-15T10:04:07.036Z,47.65
2017-09-15T10:05:07.085Z,47.75
2017-09-15T10:06:07.120Z,47.75
2017-09-15T10:07:07.162Z,48.13
2017-09-15T10:08:07.204Z,48.13
2017-09-15T10:10:25.223Z,45.76
2017-09-15T10:11:25.173Z,45.57
2017-09-15T10:12:25.215Z,46.03
2017-09-15T10:13:25.258Z,46.13
2017-09-15T10:14:25.301Z,46.03
2017-09-15T10:15:25.343Z,45.84
2017-09-15T10:16:25.395Z,46.49
2017-09-15T10:17:25.550Z,47.87
2017-09-15T10:18:25.476Z,47.77
2017-09-15T10:19:25.659Z,47.09
2017-09-15T10:20:25.679Z,47.48
2017-09-15T10:21:25.596Z,47.67
2017-09-15T10:22:25.651Z,47.65
2017-09-15T10:23:25.684Z,47.75
2017-09-15T10:24:25.721Z,47.65
2017-09-15T10:25:25.772Z,47.55
2017-09-15T10:26:25.807Z,47.65
2017-09-15T10:27:25.849Z,47.07
2017-09-15T10:28:25.903Z,47.65
2017-09-15T10:29:25.934Z,48.01
2017-09-15T10:30:25.978Z,47.53
2017-09-15T10:31:26.017Z,48.61
2017-09-15T10:32:26.061Z,48.03
2017-09-15T10:33:26.102Z,48.01
2017-09-15T10:34:26.147Z,48.03
2017-09-15T10:35:26.271Z,48.01
2017-09-15T10:36:26.228Z,48.59
2017-09-15T10:37:26.277Z,48.59
2017-09-15T10:38:26.312Z,48.11
2017-09-15T10:39:26.352Z,48.30
2017-09-15T10:40:26.399Z,48.30
2017-09-15T10:41:26.616Z,48.11
2017-09-15T10:42:26.483Z,48.40
2017-09-15T10:43:26.522Z,48.21
2017-09-15T10:44:26.563Z,48.88
2017-09-15T10:45:26.615Z,49.17
2017-09-15T10:46:26.655Z,49.17
2017-09-15T10:47:26.689Z,48.88
2017-09-15T10:48:26.738Z,48.97
2017-09-15T10:49:26.776Z,49.37
2017-09-15T10:50:26.818Z,49.07
2017-09-15T10:51:26.858Z,48.79
2017-09-15T10:52:26.923Z,48.97
2017-09-15T10:53:26.945Z,48.59
2017-09-15T10:54:26.984Z,48.49
2017-09-15T10:55:27.025Z,48.30
2017-09-15T10:56:27.066Z,48.49
2017-09-15T10:57:27.111Z,48.88
2017-09-15T10:58:27.154Z,49.17
2017-09-15T10:59:27.196Z,48.69
2017-09-15T11:00:27.240Z,48.95
2017-09-15T11:01:27.277Z,48.95
2017-09-15T11:02:27.319Z,48.97
2017-09-15T11:03:27.360Z,48.79
2017-09-15T11:04:27.401Z,48.79
2017-09-15T11:05:27.450Z,48.97
2017-09-15T11:06:27.490Z,48.79
2017-09-15T11:07:27.529Z,49.05
2017-09-15T11:08:27.575Z,49.34
2017-09-15T11:09:27.616Z,49.17
2017-09-15T11:10:27.654Z,49.17
2017-09-15T11:11:27.714Z,49.07
2017-09-15T11:12:27.828Z,49.17
2017-09-15T11:13:27.779Z,49.46
2017-09-15T11:14:27.824Z,49.27
2017-09-15T11:15:27.865Z,49.65
2017-09-15T11:16:27.904Z,49.65
2017-09-15T11:17:27.969Z,49.55
2017-09-15T11:18:27.988Z,49.39
2017-09-15T11:19:28.034Z,49.48
2017-09-15T11:20:28.084Z,49.58
2017-09-15T11:21:28.114Z,49.00
2017-09-15T11:22:28.158Z,49.39
2017-09-15T11:23:28.204Z,49.19
2017-09-15T11:24:28.249Z,48.90
2017-09-15T11:25:28.288Z,49.29
2017-09-15T11:26:28.324Z,49.00
2017-09-15T11:27:28.364Z,49.00
2017-09-15T11:28:35.306Z,48.81
2017-09-15T11:31:00.673Z,49.00
2017-09-15T11:32:00.662Z,49.19
2017-09-15T11:33:00.697Z,49.29
2017-09-15T11:34:00.748Z,49.00
2017-09-15T11:35:00.783Z,49.19
2017-09-15T11:36:00.823Z,49.39
2017-09-15T11:37:00.864Z,49.48
2017-09-15T11:38:00.908Z,49.39
2017-09-15T11:39:00.952Z,50.06
2017-09-15T11:40:00.992Z,49.58
2017-09-15T11:41:01.043Z,49.58
2017-09-15T11:42:01.080Z,50.45
2017-09-15T11:43:01.121Z,50.16
2017-09-15T11:44:01.163Z,50.16
2017-09-15T11:45:01.205Z,50.16
2017-09-15T11:46:01.247Z,50.35
2017-09-15T11:47:01.288Z,50.06
2017-09-15T11:48:01.330Z,50.06
2017-09-15T11:49:01.371Z,49.58
2017-09-15T11:50:01.415Z,49.39
2017-09-15T11:51:01.460Z,49.58
2017-09-15T11:52:01.500Z,49.29
2017-09-15T11:53:01.541Z,49.00
2017-09-15T11:54:01.584Z,49.19
2017-09-15T11:55:01.630Z,49.48
2017-09-15T11:56:01.667Z,49.29
2017-09-15T11:57:01.726Z,49.29
2017-09-15T11:58:01.754Z,49.29
2017-09-15T11:59:01.801Z,49.48
2017-09-15T12:00:01.836Z,49.39
2017-09-15T12:01:01.881Z,50.35
2017-09-15T12:02:01.921Z,50.26
2017-09-15T12:03:01.964Z,50.26
2017-09-15T12:04:02.007Z,50.06
2017-09-15T12:05:02.050Z,50.26
2017-09-15T12:06:02.133Z,49.90
2017-09-15T12:07:02.142Z,50.16
2017-09-15T12:08:02.182Z,48.81
2017-09-15T12:09:02.218Z,49.68
2017-09-15T12:10:02.268Z,49.10
2017-09-15T12:11:02.308Z,49.19
2017-09-15T12:12:02.349Z,48.71
2017-09-15T12:13:02.387Z,49.19
2017-09-15T12:14:02.435Z,48.61
2017-09-15T12:15:02.472Z,49.19
2017-09-15T12:16:02.534Z,48.42
2017-09-15T12:17:02.560Z,49.00
2017-09-15T12:18:02.601Z,48.61
2017-09-15T12:19:02.655Z,48.42
2017-09-15T12:20:02.685Z,48.33
2017-09-15T12:21:02.723Z,48.33
2017-09-15T12:22:02.773Z,48.90
2017-09-15T12:23:02.811Z,48.71
2017-09-15T12:24:02.851Z,48.81
2017-09-15T12:25:02.906Z,49.00
2017-09-15T12:26:02.933Z,48.81
2017-09-15T12:27:02.980Z,48.90
2017-09-15T12:28:03.017Z,48.61
2017-09-15T12:29:03.082Z,48.42
2017-09-15T12:30:03.107Z,48.23
2017-09-15T12:31:03.152Z,48.42
2017-09-15T12:32:03.186Z,48.52
2017-09-15T12:33:03.231Z,48.03
2017-09-15T12:34:03.283Z,48.42
2017-09-15T12:35:03.316Z,48.33
2017-09-15T12:36:03.356Z,47.65
2017-09-15T12:37:03.406Z,48.13
2017-09-15T12:38:03.442Z,48.33
2017-09-15T12:39:03.491Z,47.75
2017-09-15T12:40:03.534Z,47.75
2017-09-15T12:41:03.567Z,48.13
2017-09-15T12:42:03.613Z,48.42
2017-09-15T12:43:03.653Z,48.03
2017-09-15T12:44:03.699Z,48.03
2017-09-15T12:45:03.737Z,47.85
2017-09-15T12:46:03.783Z,47.94
2017-09-15T12:47:03.827Z,48.03
2017-09-15T12:48:03.875Z,48.03
2017-09-15T12:49:03.912Z,48.03
2017-09-15T12:50:03.956Z,47.55
2017-09-15T12:51:04.096Z,48.42
2017-09-15T12:52:04.032Z,48.13
2017-09-15T12:53:04.074Z,47.85
2017-09-15T12:54:04.122Z,47.75
2017-09-15T12:55:04.160Z,47.07
2017-09-15T12:56:04.207Z,46.97